createdAt,value
2019-03-13T00:00:46.189Z,100848.41
2019-03-13T00:03:19.125Z,100844.94
2019-03-13T00:05:50.272Z,100844.66
2019-03-13T00:08:21.672Z,100841.07
2019-03-13T00:10:52.938Z,100840.79
2019-03-13T00:13:24.244Z,100841.77
2019-03-13T00:15:55.530Z,100830.34
2019-03-13T00:18:26.863Z,100843.11
2019-03-13T00:20:58.116Z,100833.94
2019-03-13T00:23:29.419Z,100827.36
2019-03-13T00:26:02.379Z,100828.79
2019-03-13T00:28:33.711Z,100825.44
2019-03-13T00:31:04.965Z,100826.27
2019-03-13T00:33:36.302Z,100832.34
2019-03-13T00:36:07.511Z,100833.97
2019-03-13T00:38:39.046Z,100836.70
2019-03-13T00:41:10.548Z,100829.65
2019-03-13T00:43:41.814Z,100826.47
2019-03-13T00:46:13.068Z,100828.63
2019-03-13T00:48:44.297Z,100829.28
2019-03-13T00:51:15.584Z,100820.67
2019-03-13T00:53:48.805Z,100822.55
2019-03-13T00:56:19.926Z,100823.52
2019-03-13T00:58:51.294Z,100823.60
2019-03-13T01:01:24.002Z,100819.87
2019-03-13T01:04:00.752Z,100825.88
2019-03-13T01:06:36.323Z,100822.38
2019-03-13T01:09:07.543Z,100824.72
2019-03-13T01:11:38.844Z,100832.22
2019-03-13T01:14:10.017Z,100830.17
2019-03-13T01:16:41.415Z,100826.81
2019-03-13T01:19:12.569Z,100829.72
2019-03-13T01:21:43.741Z,100831.09
2019-03-13T01:24:15.197Z,100833.41
2019-03-13T01:26:46.484Z,100830.28
2019-03-13T01:29:17.728Z,100836.73
2019-03-13T01:31:50.540Z,100843.21
2019-03-13T01:34:35.228Z,100838.00
2019-03-13T01:37:06.382Z,100837.70
2019-03-13T01:39:37.646Z,100838.11
2019-03-13T01:42:08.759Z,100849.84
2019-03-13T01:44:40.853Z,100842.64
2019-03-13T01:47:13.268Z,100852.59
2019-03-13T01:49:44.596Z,100853.52
2019-03-13T01:52:15.625Z,100857.47
2019-03-13T01:54:46.963Z,100863.85
2019-03-13T01:57:18.111Z,100867.80
2019-03-13T01:59:49.283Z,100870.03
2019-03-13T02:02:20.609Z,100867.18
2019-03-13T02:04:51.935Z,100858.05
2019-03-13T02:07:23.122Z,100867.66
2019-03-13T02:09:54.262Z,100862.73
2019-03-13T02:12:25.542Z,100863.02
2019-03-13T02:14:56.883Z,100864.45
2019-03-13T02:17:28.130Z,100865.78
2019-03-13T02:19:59.317Z,100860.98
2019-03-13T02:22:30.682Z,100867.19
2019-03-13T02:25:01.988Z,100863.63
2019-03-13T02:27:33.224Z,100866.17
2019-03-13T02:30:11.723Z,100864.03
2019-03-13T02:32:42.973Z,100860.31
2019-03-13T02:35:14.279Z,100856.34
2019-03-13T02:37:45.569Z,100857.20
2019-03-13T02:40:16.918Z,100854.30
2019-03-13T02:42:48.149Z,100856.11
2019-03-13T02:45:19.328Z,100846.98
2019-03-13T02:47:50.502Z,100858.39
2019-03-13T02:50:21.741Z,100862.21
2019-03-13T02:52:53.064Z,100863.22
2019-03-13T02:55:24.180Z,100863.16
2019-03-13T02:57:55.479Z,100868.05
2019-03-13T03:00:44.336Z,100862.06
2019-03-13T03:03:29.570Z,100860.73
2019-03-13T03:06:01.709Z,100865.55
2019-03-13T03:08:33.061Z,100871.59
2019-03-13T03:11:04.481Z,100877.17
2019-03-13T03:13:35.615Z,100874.65
2019-03-13T03:16:07.923Z,100882.33
2019-03-13T03:18:38.968Z,100885.41
2019-03-13T03:21:10.208Z,100889.22
2019-03-13T03:23:44.981Z,100882.33
2019-03-13T03:26:14.283Z,100897.66
2019-03-13T03:28:45.417Z,100898.70
2019-03-13T03:31:16.647Z,100892.84
2019-03-13T03:33:58.767Z,100901.36
2019-03-13T03:36:30.404Z,100918.39
2019-03-13T03:39:01.641Z,100908.00
2019-03-13T03:41:34.813Z,100903.36
2019-03-13T03:44:06.087Z,100898.15
2019-03-13T03:46:37.195Z,100890.73
2019-03-13T03:49:08.571Z,100899.77
2019-03-13T03:51:39.875Z,100893.25
2019-03-13T03:54:11.149Z,100896.30
2019-03-13T03:56:42.434Z,100898.98
2019-03-13T03:59:13.664Z,100903.66
2019-03-13T04:01:44.974Z,100909.80
2019-03-13T04:04:16.292Z,100907.73
2019-03-13T04:06:47.530Z,100909.35
2019-03-13T04:09:18.921Z,100906.67
2019-03-13T04:11:50.242Z,100906.67
2019-03-13T04:14:21.756Z,100920.53
2019-03-13T04:16:53.007Z,100916.23
2019-03-13T04:19:24.294Z,100912.35
2019-03-13T04:21:55.451Z,100908.88
2019-03-13T04:24:26.643Z,100912.38
2019-03-13T04:26:57.882Z,100906.72
2019-03-13T04:29:29.062Z,100916.70
2019-03-13T04:32:00.996Z,100919.73
2019-03-13T04:34:32.175Z,100927.12
2019-03-13T04:37:03.559Z,100928.22
2019-03-13T04:39:36.192Z,100932.65
2019-03-13T04:42:08.196Z,100934.42
2019-03-13T04:44:39.368Z,100939.63
2019-03-13T04:47:10.597Z,100936.31
2019-03-13T04:49:41.673Z,100943.48
2019-03-13T04:52:13.095Z,100947.27
2019-03-13T04:54:44.221Z,100950.71
2019-03-13T04:57:16.528Z,100957.25
2019-03-13T04:59:47.637Z,100955.11
2019-03-13T05:02:19.289Z,100957.20
2019-03-13T05:04:50.654Z,100958.77
2019-03-13T05:07:21.906Z,100959.00
2019-03-13T05:09:53.024Z,100967.15
2019-03-13T05:12:27.551Z,100968.38
2019-03-13T05:14:58.818Z,100978.80
2019-03-13T05:17:30.067Z,100984.88
2019-03-13T05:20:01.266Z,100981.05
2019-03-13T05:22:32.598Z,100969.34
2019-03-13T05:25:04.903Z,100986.00
2019-03-13T05:27:36.265Z,100990.19
2019-03-13T05:30:09.552Z,100990.21
2019-03-13T05:32:40.726Z,100995.32
2019-03-13T05:35:13.120Z,100981.12
2019-03-13T05:37:44.316Z,100985.81
2019-03-13T05:40:17.163Z,100986.20
2019-03-13T05:42:48.998Z,100993.92
2019-03-13T05:45:20.544Z,100994.78
2019-03-13T05:47:52.805Z,100985.30
2019-03-13T05:50:23.957Z,100989.23
2019-03-13T05:53:03.198Z,100986.94
2019-03-13T05:55:35.145Z,100990.06
2019-03-13T05:58:06.372Z,100991.32
2019-03-13T06:00:37.916Z,100983.91
2019-03-13T06:03:09.457Z,100986.55
2019-03-13T06:05:40.627Z,100992.72
2019-03-13T06:08:11.936Z,100991.27
2019-03-13T06:10:43.132Z,101002.42
2019-03-13T06:13:14.491Z,101006.95
2019-03-13T06:15:45.665Z,101002.99
2019-03-13T06:18:17.026Z,100998.67
2019-03-13T06:20:48.315Z,101009.16
2019-03-13T06:23:19.593Z,101012.16
2019-03-13T06:25:50.914Z,101017.11
2019-03-13T06:28:22.423Z,101028.09
2019-03-13T06:30:53.556Z,101027.92
2019-03-13T06:33:24.859Z,101036.45
2019-03-13T06:35:56.053Z,101036.36
2019-03-13T06:38:27.190Z,101034.73
2019-03-13T06:41:05.229Z,101037.48
2019-03-13T06:43:38.526Z,101040.05
2019-03-13T06:46:09.833Z,101033.86
2019-03-13T06:48:41.200Z,101037.17
2019-03-13T06:51:13.503Z,101037.22
2019-03-13T06:53:45.899Z,101038.05
2019-03-13T06:56:17.225Z,101045.09
2019-03-13T06:58:57.617Z,101054.13
2019-03-13T07:01:45.618Z,101046.72
2019-03-13T07:04:21.581Z,101050.25
2019-03-13T07:06:54.450Z,101047.58
2019-03-13T07:09:39.390Z,101038.77
2019-03-13T07:12:20.347Z,101042.56
2019-03-13T07:14:56.384Z,101049.42
2019-03-13T07:17:29.781Z,101045.17
2019-03-13T07:20:15.254Z,101037.07
2019-03-13T07:22:57.733Z,101033.55
2019-03-13T07:25:47.786Z,101035.95
2019-03-13T07:28:31.242Z,101035.81
2019-03-13T07:31:16.966Z,101027.23
2019-03-13T07:33:56.185Z,101033.16
2019-03-13T07:36:50.061Z,101038.45
2019-03-13T07:39:26.248Z,101034.57
2019-03-13T07:42:02.257Z,101029.98
2019-03-13T07:44:35.376Z,101038.39
2019-03-13T07:47:24.906Z,101035.91
2019-03-13T07:50:03.629Z,101041.52
2019-03-13T07:52:54.592Z,101031.80
2019-03-13T07:55:31.747Z,101035.39
2019-03-13T07:58:07.450Z,101042.06
2019-03-13T08:00:57.803Z,101038.18
2019-03-13T08:03:32.372Z,101034.12
2019-03-13T08:06:20.838Z,101033.11
2019-03-13T08:09:02.066Z,101030.88
2019-03-13T08:11:45.143Z,101029.41
2019-03-13T08:14:34.507Z,101022.44
2019-03-13T08:17:07.191Z,101022.51
2019-03-13T08:19:56.589Z,101027.13
2019-03-13T08:22:46.224Z,101032.21
2019-03-13T08:25:31.275Z,101029.73
2019-03-13T08:28:04.224Z,101028.44
2019-03-13T08:30:55.846Z,101035.02
2019-03-13T08:33:36.247Z,101030.24
2019-03-13T08:36:11.707Z,101032.80
2019-03-13T08:38:44.573Z,101029.73
2019-03-13T08:41:33.799Z,101035.16
2019-03-13T08:44:22.143Z,101033.56
2019-03-13T08:46:58.150Z,101036.00
2019-03-13T08:49:43.013Z,101031.55
2019-03-13T08:52:21.729Z,101034.14
2019-03-13T08:55:09.644Z,101037.05
2019-03-13T08:57:54.410Z,101036.67
2019-03-13T09:00:39.351Z,101034.98
2019-03-13T09:03:12.058Z,101032.94
2019-03-13T09:06:01.622Z,101032.86
2019-03-13T09:08:43.987Z,101043.52
2019-03-13T09:11:36.279Z,101032.61
2019-03-13T09:14:12.361Z,101039.36
2019-03-13T09:16:54.752Z,101035.73
2019-03-13T09:19:36.439Z,101033.33
2019-03-13T09:22:25.480Z,101031.69
2019-03-13T09:25:11.094Z,101036.52
2019-03-13T09:27:35.529Z,101035.53
2019-03-13T09:30:15.454Z,101036.28
2019-03-13T09:33:04.639Z,101026.83
2019-03-13T09:35:49.530Z,101040.03
2019-03-13T09:38:25.030Z,101040.66
2019-03-13T09:41:03.708Z,101039.55
2019-03-13T09:43:42.482Z,101041.61
2019-03-13T09:46:21.340Z,101039.38
2019-03-13T09:48:59.803Z,101043.84
2019-03-13T09:51:38.869Z,101042.08
2019-03-13T09:54:32.083Z,101040.08
2019-03-13T09:57:14.238Z,101044.78
2019-03-13T10:00:07.761Z,101048.09
2019-03-13T10:02:58.610Z,101037.34
2019-03-13T10:05:31.447Z,101041.69
2019-03-13T10:08:21.146Z,101043.91
2019-03-13T10:11:09.014Z,101035.09
2019-03-13T10:13:45.081Z,101036.45
2019-03-13T10:16:21.320Z,101039.45
2019-03-13T10:19:14.492Z,101032.63
2019-03-13T10:21:50.164Z,101036.60
2019-03-13T10:24:35.033Z,101038.02
2019-03-13T10:27:21.129Z,101030.47
2019-03-13T10:30:10.486Z,101035.05
2019-03-13T10:32:55.751Z,101029.13
2019-03-13T10:35:31.308Z,101029.80
2019-03-13T10:38:13.731Z,101033.79
2019-03-13T10:40:57.526Z,101025.48
2019-03-13T10:43:30.421Z,101024.14
2019-03-13T10:46:05.991Z,101026.06
2019-03-13T10:48:45.160Z,101024.80
2019-03-13T10:51:30.445Z,101028.66
2019-03-13T10:54:06.250Z,101028.68
2019-03-13T10:56:39.129Z,101029.06
2019-03-13T10:59:11.846Z,101029.66
2019-03-13T11:01:54.465Z,101033.57
2019-03-13T11:04:43.384Z,101027.16
2019-03-13T11:07:16.199Z,101027.83
2019-03-13T11:09:49.031Z,101038.67
2019-03-13T11:12:36.995Z,101037.20
2019-03-13T11:15:26.445Z,101038.33
2019-03-13T11:18:17.949Z,101038.26
2019-03-13T11:21:02.406Z,101036.11
2019-03-13T11:23:47.107Z,101039.31
2019-03-13T11:26:19.782Z,101042.00
2019-03-13T11:28:56.290Z,101048.81
2019-03-13T11:31:38.234Z,101046.92
2019-03-13T11:34:14.060Z,101051.96
2019-03-13T11:37:03.105Z,101049.70
2019-03-13T11:39:38.848Z,101050.87
2019-03-13T11:42:12.718Z,101046.94
2019-03-13T11:44:45.703Z,101050.05
2019-03-13T11:47:21.603Z,101044.34
2019-03-13T11:50:06.286Z,101044.34
2019-03-13T11:52:55.517Z,101044.73
2019-03-13T11:55:46.510Z,101045.44
2019-03-13T11:58:22.145Z,101040.45
2019-03-13T12:01:07.355Z,101048.36
2019-03-13T12:03:57.475Z,101059.49
2019-03-13T12:06:30.416Z,101053.70
2019-03-13T12:09:15.706Z,101051.48
2019-03-13T12:11:51.672Z,101049.32
2019-03-13T12:14:30.656Z,101056.41
2019-03-13T12:17:18.728Z,101056.64
2019-03-13T12:19:54.169Z,101061.16
2019-03-13T12:22:26.897Z,101067.59
2019-03-13T12:25:03.096Z,101061.18
2019-03-13T12:27:54.570Z,101065.11
2019-03-13T12:30:33.851Z,101069.62
2019-03-13T12:33:06.796Z,101076.58
2019-03-13T12:35:39.696Z,101076.06
2019-03-13T12:38:18.585Z,101079.80
2019-03-13T12:40:57.623Z,101074.89
2019-03-13T12:43:38.126Z,101077.20
2019-03-13T12:46:13.736Z,101073.81
2019-03-13T12:48:46.564Z,101073.66
2019-03-13T12:51:31.487Z,101072.38
2019-03-13T12:54:07.533Z,101076.67
2019-03-13T12:56:41.272Z,101079.38
2019-03-13T12:59:22.002Z,101071.77
2019-03-13T13:01:54.966Z,101078.76
2019-03-13T13:04:35.683Z,101079.52
2019-03-13T13:07:11.810Z,101074.90
2019-03-13T13:10:00.043Z,101076.83
2019-03-13T13:12:41.879Z,101076.20
2019-03-13T13:15:23.820Z,101079.70
2019-03-13T13:18:05.465Z,101078.53
2019-03-13T13:20:36.635Z,101073.03
2019-03-13T13:23:07.973Z,101073.89
2019-03-13T13:25:39.159Z,101076.48
2019-03-13T13:28:10.398Z,101065.83
2019-03-13T13:30:41.548Z,101054.19
2019-03-13T13:33:13.645Z,101054.31
2019-03-13T13:35:45.037Z,101059.30
2019-03-13T13:38:16.297Z,101055.75
2019-03-13T13:40:47.546Z,101060.44
2019-03-13T13:43:18.895Z,101054.16
2019-03-13T13:45:56.560Z,101055.31
2019-03-13T13:48:27.632Z,101061.34
2019-03-13T13:50:58.746Z,101063.73
2019-03-13T13:53:30.198Z,101074.46
2019-03-13T13:56:01.415Z,101067.63
2019-03-13T13:58:32.633Z,101068.42
2019-03-13T14:01:03.675Z,101065.22
2019-03-13T14:03:34.919Z,101079.47
2019-03-13T14:06:06.447Z,101074.18
2019-03-13T14:08:39.067Z,101072.14
2019-03-13T14:11:10.270Z,101070.31
2019-03-13T14:13:41.852Z,101072.89
2019-03-13T14:16:12.986Z,101078.06
2019-03-13T14:18:44.070Z,101075.89
2019-03-13T14:21:15.677Z,101076.30
2019-03-13T14:23:47.837Z,101079.22
2019-03-13T14:26:19.037Z,101079.12
2019-03-13T14:28:50.278Z,101078.08
2019-03-13T14:31:21.381Z,101078.34
2019-03-13T14:33:52.573Z,101077.31
2019-03-13T14:36:23.752Z,101085.23
2019-03-13T14:38:54.883Z,101092.18
2019-03-13T14:41:26.757Z,101092.14
2019-03-13T14:43:58.169Z,101091.32
2019-03-13T14:46:29.658Z,101092.69
2019-03-13T14:49:01.078Z,101094.91
2019-03-13T14:51:32.173Z,101089.34
2019-03-13T14:54:03.656Z,101090.22
2019-03-13T14:56:35.179Z,101097.13
2019-03-13T14:59:06.264Z,101089.45
2019-03-13T15:01:38.667Z,101095.05
2019-03-13T15:04:10.181Z,101090.99
2019-03-13T15:06:42.554Z,101089.64
2019-03-13T15:09:13.845Z,101093.56
2019-03-13T15:11:45.090Z,101095.42
2019-03-13T15:14:18.261Z,101100.75
2019-03-13T15:16:49.463Z,101103.56
2019-03-13T15:19:20.644Z,101105.77
2019-03-13T15:21:51.845Z,101098.82
2019-03-13T15:24:22.934Z,101104.14
2019-03-13T15:26:54.303Z,101103.20
2019-03-13T15:29:25.403Z,101110.11
2019-03-13T15:31:56.573Z,101112.73
2019-03-13T15:34:27.914Z,101106.62
2019-03-13T15:36:59.245Z,101115.78
2019-03-13T15:39:30.539Z,101113.70
2019-03-13T15:42:01.897Z,101115.02
2019-03-13T15:44:33.516Z,101122.46
2019-03-13T15:47:05.037Z,101126.20
2019-03-13T15:49:36.284Z,101129.63
2019-03-13T15:52:07.702Z,101140.05
2019-03-13T15:54:38.850Z,101136.17
2019-03-13T15:57:09.888Z,101139.11
2019-03-13T15:59:40.979Z,101143.36
2019-03-13T16:02:13.530Z,101140.91
2019-03-13T16:04:44.651Z,101147.00
2019-03-13T16:07:15.801Z,101145.95
2019-03-13T16:09:47.039Z,101147.00
2019-03-13T16:12:18.335Z,101143.37
2019-03-13T16:14:51.786Z,101145.53
2019-03-13T16:17:23.087Z,101145.91
2019-03-13T16:19:54.351Z,101153.76
2019-03-13T16:22:25.899Z,101156.98
2019-03-13T16:24:57.259Z,101155.75
2019-03-13T16:27:28.523Z,101157.84
2019-03-13T16:29:59.890Z,101156.69
2019-03-13T16:32:43.301Z,101161.59
2019-03-13T16:35:06.393Z,101158.08
2019-03-13T16:37:37.749Z,101161.03
2019-03-13T16:40:15.106Z,101165.22
2019-03-13T16:42:46.277Z,101167.09
2019-03-13T16:45:19.692Z,101167.73
2019-03-13T16:47:51.093Z,101169.06
2019-03-13T16:50:25.231Z,101165.14
2019-03-13T16:52:56.520Z,101167.24
2019-03-13T16:55:28.245Z,101170.83
2019-03-13T16:57:59.659Z,101185.14
2019-03-13T17:00:33.126Z,101186.69
2019-03-13T17:03:05.601Z,101192.84
2019-03-13T17:05:37.826Z,101191.99
2019-03-13T17:08:09.349Z,101194.05
2019-03-13T17:10:40.593Z,101197.59
2019-03-13T17:13:11.798Z,101200.38
2019-03-13T17:15:43.166Z,101201.25
2019-03-13T17:18:14.387Z,101208.30
2019-03-13T17:20:45.836Z,101210.21
2019-03-13T17:23:17.980Z,101213.88
2019-03-13T17:25:51.058Z,101220.50
2019-03-13T17:28:22.388Z,101219.22
2019-03-13T17:30:53.756Z,101214.59
2019-03-13T17:33:25.075Z,101214.16
2019-03-13T17:35:56.595Z,101221.45
2019-03-13T17:38:28.005Z,101219.80
2019-03-13T17:40:59.211Z,101218.16
2019-03-13T17:43:39.309Z,101216.08
2019-03-13T17:46:03.697Z,101221.72
2019-03-13T17:48:36.837Z,101221.62
2019-03-13T17:51:08.149Z,101223.37
2019-03-13T17:53:39.522Z,101218.12
2019-03-13T17:56:10.868Z,101214.66
2019-03-13T17:58:42.124Z,101220.80
2019-03-13T18:01:13.496Z,101220.83
2019-03-13T18:03:45.019Z,101221.27
2019-03-13T18:06:16.246Z,101224.66
2019-03-13T18:08:47.566Z,101226.08
2019-03-13T18:11:18.709Z,101233.97
2019-03-13T18:13:49.864Z,101227.47
2019-03-13T18:16:21.225Z,101231.05
2019-03-13T18:18:52.660Z,101242.83
2019-03-13T18:21:24.005Z,101240.66
2019-03-13T18:23:55.422Z,101238.08
2019-03-13T18:26:26.946Z,101245.41
2019-03-13T18:28:58.307Z,101243.75
2019-03-13T18:31:29.483Z,101236.33
2019-03-13T18:34:02.779Z,101238.05
2019-03-13T18:36:46.823Z,101238.47
2019-03-13T18:39:18.242Z,101242.83
2019-03-13T18:41:49.496Z,101246.28
2019-03-13T18:44:21.489Z,101243.25
2019-03-13T18:47:02.946Z,101238.99
2019-03-13T18:49:40.933Z,101240.72
2019-03-13T18:52:14.119Z,101250.28
2019-03-13T18:54:52.949Z,101250.30
2019-03-13T18:57:28.525Z,101248.55
2019-03-13T19:00:01.963Z,101249.44
2019-03-13T19:02:35.088Z,101246.88
2019-03-13T19:05:10.170Z,101243.88
2019-03-13T19:07:44.638Z,101250.02
2019-03-13T19:10:21.031Z,101249.95
2019-03-13T19:12:52.655Z,101249.98
2019-03-13T19:15:28.660Z,101253.87
2019-03-13T19:18:01.290Z,101247.43
2019-03-13T19:20:33.285Z,101258.22
2019-03-13T19:23:06.992Z,101257.72
2019-03-13T19:25:39.819Z,101262.94
2019-03-13T19:28:14.412Z,101261.09
2019-03-13T19:30:47.329Z,101261.95
2019-03-13T19:33:19.012Z,101261.92
2019-03-13T19:35:50.607Z,101256.02
2019-03-13T19:38:21.968Z,101266.95
2019-03-13T19:40:54.535Z,101268.95
2019-03-13T19:43:28.236Z,101265.89
2019-03-13T19:45:59.987Z,101266.08
2019-03-13T19:48:31.938Z,101265.42
2019-03-13T19:51:03.844Z,101267.92
2019-03-13T19:53:35.261Z,101269.10
2019-03-13T19:56:07.908Z,101270.34
2019-03-13T19:58:39.185Z,101271.65
2019-03-13T20:01:10.959Z,101272.91
2019-03-13T20:03:54.354Z,101272.77
2019-03-13T20:06:15.432Z,101268.50
2019-03-13T20:08:51.088Z,101269.41
2019-03-13T20:11:23.101Z,101272.88
2019-03-13T20:13:58.747Z,101276.75
2019-03-13T20:16:32.089Z,101278.03
2019-03-13T20:19:05.582Z,101276.75
2019-03-13T20:21:37.175Z,101280.16
2019-03-13T20:24:08.644Z,101281.63
2019-03-13T20:26:40.264Z,101285.44
2019-03-13T20:29:11.415Z,101275.96
2019-03-13T20:31:42.740Z,101280.78
2019-03-13T20:34:13.885Z,101283.02
2019-03-13T20:36:45.677Z,101292.14
2019-03-13T20:39:17.301Z,101291.77
2019-03-13T20:41:48.788Z,101293.98
2019-03-13T20:44:20.113Z,101290.97
2019-03-13T20:46:51.622Z,101289.73
2019-03-13T20:49:22.981Z,101290.69
2019-03-13T20:51:54.320Z,101290.28
2019-03-13T20:54:26.965Z,101290.25
2019-03-13T20:56:59.646Z,101289.81
2019-03-13T20:59:32.554Z,101280.38
2019-03-13T21:02:11.612Z,101283.89
2019-03-13T21:04:55.364Z,101286.59
2019-03-13T21:07:27.886Z,101289.14
2019-03-13T21:10:17.888Z,101291.40
2019-03-13T21:12:59.309Z,101298.89
2019-03-13T21:15:30.625Z,101293.20
2019-03-13T21:18:02.013Z,101285.34
2019-03-13T21:20:33.718Z,101293.63
2019-03-13T21:23:07.473Z,101292.73
2019-03-13T21:25:41.400Z,101296.20
2019-03-13T21:28:13.211Z,101292.33
2019-03-13T21:30:45.250Z,101294.09
2019-03-13T21:33:18.234Z,101290.63
2019-03-13T21:35:50.647Z,101292.83
2019-03-13T21:38:29.805Z,101292.86
2019-03-13T21:41:10.811Z,101298.09
2019-03-13T21:43:45.869Z,101294.14
2019-03-13T21:46:20.248Z,101292.88
2019-03-13T21:48:51.531Z,101294.18
2019-03-13T21:51:23.188Z,101292.91
2019-03-13T21:53:54.558Z,101290.73
2019-03-13T21:56:25.908Z,101302.88
2019-03-13T21:58:57.500Z,101295.97
2019-03-13T22:01:28.658Z,101287.78
2019-03-13T22:03:59.987Z,101293.42
2019-03-13T22:06:31.735Z,101292.96
2019-03-13T22:09:04.763Z,101292.12
2019-03-13T22:11:36.622Z,101286.95
2019-03-13T22:14:08.053Z,101291.28
2019-03-13T22:16:39.368Z,101287.37
2019-03-13T22:19:10.965Z,101283.86
2019-03-13T22:21:42.190Z,101279.57
2019-03-13T22:24:13.511Z,101280.01
2019-03-13T22:26:45.003Z,101287.42
2019-03-13T22:29:16.419Z,101283.53
2019-03-13T22:31:47.942Z,101283.95
2019-03-13T22:34:19.196Z,101290.05
2019-03-13T22:36:50.565Z,101284.89
2019-03-13T22:39:21.772Z,101279.23
2019-03-13T22:41:53.046Z,101271.81
2019-03-13T22:44:24.487Z,101276.59
2019-03-13T22:46:55.860Z,101285.34
2019-03-13T22:49:27.101Z,101283.57
2019-03-13T22:51:58.347Z,101283.63
2019-03-13T22:54:29.691Z,101282.79
2019-03-13T22:57:00.897Z,101286.63
2019-03-13T22:59:33.359Z,101286.20
2019-03-13T23:02:05.030Z,101283.18
2019-03-13T23:04:36.485Z,101291.88
2019-03-13T23:07:07.654Z,101280.19
2019-03-13T23:09:38.944Z,101281.06
2019-03-13T23:12:10.346Z,101281.98
2019-03-13T23:14:41.709Z,101271.64
2019-03-13T23:17:12.966Z,101282.09
2019-03-13T23:19:44.199Z,101285.52
2019-03-13T23:22:17.009Z,101282.88
2019-03-13T23:24:48.130Z,101277.27
2019-03-13T23:27:19.332Z,101274.67
2019-03-13T23:29:50.766Z,101279.47
2019-03-13T23:32:22.074Z,101281.20
2019-03-13T23:34:53.310Z,101282.08
2019-03-13T23:37:24.469Z,101269.91
2019-03-13T23:39:57.728Z,101271.21
2019-03-13T23:42:28.787Z,101272.53
2019-03-13T23:45:00.049Z,101271.23
2019-03-13T23:47:31.138Z,101272.13
2019-03-13T23:50:02.374Z,101266.90
2019-03-13T23:52:33.816Z,101269.50
2019-03-13T23:55:05.751Z,101270.34
2019-03-13T23:57:36.972Z,101280.81
